Time;durP1;ratioP1;P1;durP2;ratioP2;P2;SDS_P1;SDS_P2;PMS_P1;PMS_P2;Temp;Humidity;BMP_temperature;BMP_pressure;BME280_temperature;BME280_humidity;BME280_pressure;Samples;Min_cycle;Max_cycle;Signal;HPM_P1;HPM_P2
2022/08/30 00:01:04;;;;;;;;;;;17.60;59.70;;;;;;5128728;27;19919;-72
2022/08/30 00:03:32;;;;;;;;;;;17.60;59.80;;;;;;5131618;27;19923;-71
2022/08/30 00:05:59;;;;;;;;;;;17.60;60.00;;;;;;5132267;27;19927;-72
2022/08/30 00:08:26;;;;;;;;;;;17.50;60.10;;;;;;5130810;27;20540;-72
2022/08/30 00:10:53;;;;;;;;;;;17.50;60.10;;;;;;5132946;27;19919;-72
2022/08/30 00:13:21;;;;;;;;;;;17.40;60.30;;;;;;5128264;27;19920;-72
2022/08/30 00:15:48;;;;;;;;;;;17.40;60.00;;;;;;5131367;27;19927;-72
2022/08/30 00:18:17;;;;;;;;;;;17.40;60.00;;;;;;5128789;27;19927;-72
2022/08/30 00:20:44;;;;;;;;;;;17.30;60.10;;;;;;5130786;27;19972;-72
2022/08/30 00:23:11;;;;;;;;;;;17.40;59.90;;;;;;5130290;27;19920;-72
2022/08/30 00:25:37;;;;;;;;;;;17.30;60.00;;;;;;5128655;27;19923;-72
2022/08/30 00:28:04;;;;;;;;;;;17.30;59.90;;;;;;5129570;27;19919;-72
2022/08/30 00:30:32;;;;;;;;;;;17.30;60.00;;;;;;5129248;27;19923;-72
2022/08/30 00:32:59;;;;;;;;;;;17.30;60.10;;;;;;5131267;27;19923;-72
2022/08/30 00:35:26;;;;;;;;;;;17.20;60.20;;;;;;5132524;27;19930;-71
2022/08/30 00:37:53;;;;;;;;;;;17.20;60.20;;;;;;5129227;27;20352;-71
2022/08/30 00:40:20;;;;;;;;;;;17.20;60.40;;;;;;5131523;27;19930;-70
2022/08/30 00:42:48;;;;;;;;;;;17.20;60.40;;;;;;5132322;27;20261;-70
2022/08/30 00:45:16;;;;;;;;;;;17.20;60.40;;;;;;5127851;27;19919;-71
2022/08/30 00:47:44;;;;;;;;;;;17.10;60.50;;;;;;5121539;27;19919;-71
2022/08/30 00:50:12;;;;;;;;;;;17.10;60.70;;;;;;5129098;27;19923;-72
2022/08/30 00:52:40;;;;;;;;;;;17.00;60.90;;;;;;5120954;27;19926;-71
2022/08/30 00:55:08;;;;;;;;;;;17.00;61.00;;;;;;5121831;27;19923;-71
2022/08/30 00:57:35;;;;;;;;;;;16.90;61.10;;;;;;5130063;27;20018;-73
2022/08/30 01:00:04;;;;;;;;;;;16.90;61.20;;;;;;5123257;27;20419;-72
2022/08/30 01:02:33;;;;;;;;;;;16.90;61.30;;;;;;5125688;27;19962;-72
2022/08/30 01:05:02;;;;;;;;;;;16.80;61.40;;;;;;5123937;27;20424;-73
2022/08/30 01:07:29;;;;;;;;;;;16.90;61.50;;;;;;5123105;27;19966;-72
2022/08/30 01:09:56;;;;;;;;;;;16.90;61.40;;;;;;5125260;27;19919;-72
2022/08/30 01:12:23;;;;;;;;;;;16.90;61.40;;;;;;5117148;27;20034;-73
2022/08/30 01:14:50;;;;;;;;;;;16.90;61.40;;;;;;5124507;27;19919;-72
2022/08/30 01:17:17;;;;;;;;;;;16.80;61.60;;;;;;5125352;27;20026;-72
2022/08/30 01:19:47;;;;;;;;;;;16.70;61.70;;;;;;5123844;27;19923;-72
2022/08/30 01:22:19;;;;;;;;;;;16.80;61.70;;;;;;5117699;27;19919;-72
2022/08/30 01:24:48;;;;;;;;;;;16.70;61.80;;;;;;5128219;27;20022;-72
2022/08/30 01:27:16;;;;;;;;;;;16.70;61.80;;;;;;5124345;27;19919;-71
2022/08/30 01:29:43;;;;;;;;;;;16.70;61.90;;;;;;5127410;27;19919;-72
2022/08/30 01:32:17;;;;;;;;;;;16.60;62.00;;;;;;5127659;27;20396;-73
2022/08/30 01:34:44;;;;;;;;;;;16.60;62.10;;;;;;5128616;27;20273;-72
2022/08/30 01:37:10;;;;;;;;;;;16.60;62.10;;;;;;5126163;27;20347;-73
2022/08/30 01:39:37;;;;;;;;;;;16.60;62.20;;;;;;5125168;27;19951;-73
2022/08/30 01:42:06;;;;;;;;;;;16.60;62.30;;;;;;5125840;27;19919;-72
2022/08/30 01:44:32;;;;;;;;;;;16.50;62.60;;;;;;5131019;27;19927;-72
2022/08/30 01:46:59;;;;;;;;;;;16.40;62.50;;;;;;5123254;27;19924;-73
2022/08/30 01:49:26;;;;;;;;;;;16.40;62.50;;;;;;5127598;27;19969;-72
2022/08/30 01:51:53;;;;;;;;;;;16.40;62.40;;;;;;5128239;27;19943;-70
2022/08/30 01:54:19;;;;;;;;;;;16.40;62.40;;;;;;5131899;27;19923;-73
2022/08/30 01:56:46;;;;;;;;;;;16.30;62.50;;;;;;5128230;27;19930;-72
2022/08/30 01:59:14;;;;;;;;;;;16.40;62.40;;;;;;5124783;27;19919;-72
2022/08/30 02:01:41;;;;;;;;;;;16.40;62.50;;;;;;5121835;27;19939;-72
2022/08/30 02:04:10;;;;;;;;;;;16.40;62.60;;;;;;5120798;27;20026;-72
2022/08/30 02:06:38;;;;;;;;;;;16.30;62.60;;;;;;5120886;27;19919;-72
2022/08/30 02:09:04;;;;;;;;;;;16.30;62.70;;;;;;5124891;27;20261;-71
2022/08/30 02:11:31;;;;;;;;;;;16.30;62.90;;;;;;5123273;27;19919;-72
2022/08/30 02:13:58;;;;;;;;;;;16.20;62.90;;;;;;5128516;27;19919;-72
2022/08/30 02:16:26;;;;;;;;;;;16.10;63.10;;;;;;5125581;27;20048;-72
2022/08/30 02:18:55;;;;;;;;;;;16.20;63.00;;;;;;5126721;27;20019;-72
2022/08/30 02:21:22;;;;;;;;;;;16.10;63.20;;;;;;5125611;27;19955;-71
2022/08/30 02:23:49;;;;;;;;;;;16.20;63.10;;;;;;5117164;27;21257;-72
2022/08/30 02:26:15;;;;;;;;;;;16.20;62.80;;;;;;5126046;27;19920;-71
2022/08/30 02:28:43;;;;;;;;;;;16.20;62.90;;;;;;5124747;27;19930;-72
2022/08/30 02:31:10;;;;;;;;;;;16.10;63.00;;;;;;5121769;27;19920;-73
2022/08/30 02:33:38;;;;;;;;;;;16.10;63.10;;;;;;5122759;27;19926;-71
2022/08/30 02:36:05;;;;;;;;;;;16.10;63.10;;;;;;5128996;27;19920;-71
2022/08/30 02:38:32;;;;;;;;;;;16.10;63.10;;;;;;5129337;27;19930;-71
2022/08/30 02:40:59;;;;;;;;;;;16.00;63.30;;;;;;5119852;27;20002;-72
2022/08/30 02:43:26;;;;;;;;;;;16.00;63.40;;;;;;5127263;27;19923;-71
2022/08/30 02:45:53;;;;;;;;;;;15.90;63.40;;;;;;5128316;27;19920;-71
2022/08/30 02:48:20;;;;;;;;;;;15.90;63.70;;;;;;5125031;27;19923;-72
2022/08/30 02:50:51;;;;;;;;;;;15.90;63.60;;;;;;5128880;27;19919;-72
2022/08/30 02:53:19;;;;;;;;;;;15.90;63.60;;;;;;5123562;27;19920;-72
2022/08/30 02:55:46;;;;;;;;;;;15.90;63.60;;;;;;5120434;27;20136;-72
2022/08/30 02:58:13;;;;;;;;;;;15.80;63.60;;;;;;5122249;27;19931;-72
2022/08/30 03:00:41;;;;;;;;;;;15.80;63.60;;;;;;5125096;27;19919;-73
2022/08/30 03:03:08;;;;;;;;;;;15.80;63.60;;;;;;5126500;28;19968;-72
2022/08/30 03:05:34;;;;;;;;;;;15.80;63.60;;;;;;5129216;27;19927;-71
2022/08/30 03:08:03;;;;;;;;;;;15.80;63.70;;;;;;5127205;27;19962;-71
2022/08/30 03:10:30;;;;;;;;;;;15.80;63.80;;;;;;5125463;27;19919;-71
2022/08/30 03:12:57;;;;;;;;;;;15.70;63.90;;;;;;5123438;27;19919;-72
2022/08/30 03:15:24;;;;;;;;;;;15.70;64.00;;;;;;5120213;27;19958;-72
2022/08/30 03:17:51;;;;;;;;;;;15.70;64.10;;;;;;5123109;27;20010;-70
2022/08/30 03:20:18;;;;;;;;;;;15.60;64.30;;;;;;5123181;27;20280;-71
2022/08/30 03:22:45;;;;;;;;;;;15.60;64.30;;;;;;5124304;27;19923;-71
2022/08/30 03:25:13;;;;;;;;;;;15.60;64.40;;;;;;5123675;27;19929;-72
2022/08/30 03:27:40;;;;;;;;;;;15.60;64.50;;;;;;5123366;27;19923;-72
2022/08/30 03:30:08;;;;;;;;;;;15.60;64.60;;;;;;5128201;27;20006;-72
2022/08/30 03:32:35;;;;;;;;;;;15.60;64.70;;;;;;5123800;27;19919;-72
2022/08/30 03:35:02;;;;;;;;;;;15.60;64.70;;;;;;5128109;27;19926;-72
2022/08/30 03:37:29;;;;;;;;;;;15.50;64.80;;;;;;5120212;27;19927;-72
2022/08/30 03:39:56;;;;;;;;;;;15.40;64.90;;;;;;5128224;27;20265;-70
2022/08/30 03:42:24;;;;;;;;;;;15.30;65.20;;;;;;5123214;27;19926;-72
2022/08/30 03:44:50;;;;;;;;;;;15.30;65.30;;;;;;5130469;27;19919;-72
2022/08/30 03:47:17;;;;;;;;;;;15.40;64.90;;;;;;5130970;27;19938;-71
2022/08/30 03:49:44;;;;;;;;;;;15.40;64.90;;;;;;5130894;27;19953;-71
2022/08/30 03:52:11;;;;;;;;;;;15.40;64.80;;;;;;5130617;27;19980;-71
2022/08/30 03:54:38;;;;;;;;;;;15.40;64.80;;;;;;5125679;27;19938;-71
2022/08/30 03:57:06;;;;;;;;;;;15.40;64.70;;;;;;5128597;27;20014;-71
2022/08/30 03:59:34;;;;;;;;;;;15.40;64.80;;;;;;5127817;27;19924;-72
2022/08/30 04:02:01;;;;;;;;;;;15.40;64.80;;;;;;5122744;27;20386;-70
2022/08/30 04:04:28;;;;;;;;;;;15.30;65.00;;;;;;5131955;27;19929;-72
2022/08/30 04:06:55;;;;;;;;;;;15.30;65.20;;;;;;5138880;27;19926;-72
2022/08/30 04:09:22;;;;;;;;;;;15.20;65.40;;;;;;5128668;27;20388;-73
2022/08/30 04:11:49;;;;;;;;;;;15.20;65.40;;;;;;5131408;27;19926;-73
2022/08/30 04:14:16;;;;;;;;;;;15.20;65.60;;;;;;5125344;27;19953;-71
2022/08/30 04:16:45;;;;;;;;;;;15.10;65.80;;;;;;5130407;27;19927;-72
2022/08/30 04:19:12;;;;;;;;;;;15.20;65.70;;;;;;5123905;27;19920;-72
2022/08/30 04:21:38;;;;;;;;;;;15.20;65.50;;;;;;5121081;27;20063;-71
2022/08/30 04:24:05;;;;;;;;;;;15.10;65.60;;;;;;5129706;27;19923;-72
2022/08/30 04:26:32;;;;;;;;;;;15.10;65.80;;;;;;5130510;27;19926;-73
2022/08/30 04:28:59;;;;;;;;;;;15.10;65.90;;;;;;5133382;27;19919;-72
2022/08/30 04:31:26;;;;;;;;;;;15.10;65.90;;;;;;5128497;27;19927;-72
2022/08/30 04:33:54;;;;;;;;;;;15.10;66.00;;;;;;5128988;27;20005;-72
2022/08/30 04:36:21;;;;;;;;;;;15.10;66.00;;;;;;5124545;27;19980;-72
2022/08/30 04:38:48;;;;;;;;;;;15.10;66.10;;;;;;5132434;27;19919;-71
2022/08/30 04:41:16;;;;;;;;;;;15.10;66.20;;;;;;5126797;27;19924;-71
2022/08/30 04:43:43;;;;;;;;;;;15.10;66.10;;;;;;5126066;27;20384;-72
2022/08/30 04:46:12;;;;;;;;;;;15.10;66.00;;;;;;5130266;27;19919;-72
2022/08/30 04:48:39;;;;;;;;;;;15.10;66.10;;;;;;5131783;27;20524;-71
2022/08/30 04:51:08;;;;;;;;;;;15.10;66.10;;;;;;5125160;27;20555;-72
2022/08/30 04:53:35;;;;;;;;;;;15.10;66.10;;;;;;5127586;27;19923;-73
2022/08/30 04:56:06;;;;;;;;;;;15.10;66.20;;;;;;5127514;27;19919;-72
2022/08/30 04:58:33;;;;;;;;;;;15.10;66.00;;;;;;5125066;27;19919;-73
2022/08/30 05:01:00;;;;;;;;;;;15.10;66.10;;;;;;5126409;27;19920;-71
2022/08/30 05:03:27;;;;;;;;;;;15.10;66.10;;;;;;5124060;27;19923;-72
2022/08/30 05:05:53;;;;;;;;;;;15.10;66.20;;;;;;5127013;27;19924;-71
2022/08/30 05:08:22;;;;;;;;;;;15.10;66.30;;;;;;5124240;27;19923;-72
2022/08/30 05:10:50;;;;;;;;;;;15.10;66.30;;;;;;5124784;27;19926;-72
2022/08/30 05:13:17;;;;;;;;;;;15.10;66.40;;;;;;5132604;27;19919;-71
2022/08/30 05:15:44;;;;;;;;;;;15.10;66.50;;;;;;5127615;27;19926;-72
2022/08/30 05:18:11;;;;;;;;;;;15.10;66.60;;;;;;5122847;27;19926;-72
2022/08/30 05:20:38;;;;;;;;;;;15.10;66.50;;;;;;5131201;27;20447;-72
2022/08/30 05:23:05;;;;;;;;;;;15.10;66.70;;;;;;5124943;27;19923;-71
2022/08/30 05:25:36;;;;;;;;;;;15.10;66.60;;;;;;5127820;27;20329;-72
2022/08/30 05:28:03;;;;;;;;;;;15.20;66.60;;;;;;5130812;27;20384;-72
2022/08/30 05:30:31;;;;;;;;;;;15.20;66.60;;;;;;5129325;27;20446;-70
2022/08/30 05:32:58;;;;;;;;;;;15.20;66.70;;;;;;5128617;27;19920;-72
2022/08/30 05:35:24;;;;;;;;;;;15.30;66.70;;;;;;5123777;27;19934;-71
2022/08/30 05:37:51;;;;;;;;;;;15.30;66.80;;;;;;5126064;27;20399;-72
2022/08/30 05:40:18;;;;;;;;;;;15.30;66.80;;;;;;5124598;27;20399;-72
2022/08/30 05:42:46;;;;;;;;;;;15.30;66.80;;;;;;5128845;27;20907;-72
2022/08/30 05:45:13;;;;;;;;;;;15.40;66.80;;;;;;5129743;27;20373;-72
2022/08/30 05:47:40;;;;;;;;;;;15.40;66.80;;;;;;5131779;27;19927;-72
2022/08/30 05:50:08;;;;;;;;;;;15.40;66.80;;;;;;5123360;27;19923;-71
2022/08/30 05:52:35;;;;;;;;;;;15.50;67.00;;;;;;5125154;27;19926;-73
2022/08/30 05:55:03;;;;;;;;;;;15.50;67.00;;;;;;5124391;27;19925;-73
2022/08/30 05:57:31;;;;;;;;;;;15.60;66.70;;;;;;5135835;27;19919;-72
2022/08/30 06:00:00;;;;;;;;;;;15.60;66.60;;;;;;5128274;27;19920;-71
2022/08/30 06:02:27;;;;;;;;;;;15.70;66.50;;;;;;5120615;27;20320;-72
2022/08/30 06:04:54;;;;;;;;;;;15.80;66.40;;;;;;5125360;27;19919;-72
2022/08/30 06:07:21;;;;;;;;;;;15.90;66.50;;;;;;5120660;27;19927;-71
2022/08/30 06:09:48;;;;;;;;;;;15.90;66.30;;;;;;5127920;27;19919;-71
2022/08/30 06:12:15;;;;;;;;;;;16.00;66.40;;;;;;5121779;27;19920;-72
2022/08/30 06:14:41;;;;;;;;;;;16.10;66.10;;;;;;5125790;27;19926;-72
2022/08/30 06:17:09;;;;;;;;;;;16.10;66.00;;;;;;5125250;27;20910;-72
2022/08/30 06:19:36;;;;;;;;;;;16.20;65.80;;;;;;5125191;27;19934;-72
2022/08/30 06:22:03;;;;;;;;;;;16.20;65.70;;;;;;5125921;27;19964;-72
2022/08/30 06:24:29;;;;;;;;;;;16.20;65.40;;;;;;5131230;27;19919;-71
2022/08/30 06:26:56;;;;;;;;;;;16.20;66.00;;;;;;5124537;27;19923;-72
2022/08/30 06:29:23;;;;;;;;;;;16.20;66.20;;;;;;5125258;27;19920;-72
2022/08/30 06:31:50;;;;;;;;;;;16.20;66.30;;;;;;5126318;27;19919;-71
2022/08/30 06:34:18;;;;;;;;;;;16.30;66.40;;;;;;5130032;27;19927;-72
2022/08/30 06:36:45;;;;;;;;;;;16.40;66.50;;;;;;5121696;27;19919;-72
2022/08/30 06:39:12;;;;;;;;;;;16.50;66.40;;;;;;5120851;27;19920;-72
2022/08/30 06:41:40;;;;;;;;;;;16.60;66.10;;;;;;5122466;27;19928;-71
2022/08/30 06:44:16;;;;;;;;;;;16.60;66.10;;;;;;5124808;27;19919;-72
2022/08/30 06:46:43;;;;;;;;;;;16.60;66.10;;;;;;5126691;27;19926;-71
2022/08/30 06:49:09;;;;;;;;;;;16.70;65.70;;;;;;5119571;27;20280;-71
2022/08/30 06:51:39;;;;;;;;;;;16.70;65.40;;;;;;5127156;27;20004;-72
2022/08/30 06:54:06;;;;;;;;;;;16.70;66.00;;;;;;5128659;27;20406;-72
2022/08/30 06:56:32;;;;;;;;;;;16.90;66.20;;;;;;5130125;28;19926;-72
2022/08/30 06:58:59;;;;;;;;;;;16.90;66.10;;;;;;5125842;27;20020;-71
2022/08/30 07:01:27;;;;;;;;;;;17.00;65.80;;;;;;5119663;27;19962;-72
2022/08/30 07:03:54;;;;;;;;;;;17.00;66.00;;;;;;5127594;28;19926;-72
2022/08/30 07:06:21;;;;;;;;;;;17.20;66.40;;;;;;5124782;27;19927;-72
2022/08/30 07:08:50;;;;;;;;;;;17.30;66.10;;;;;;5128116;27;20381;-72
2022/08/30 07:11:25;;;;;;;;;;;17.60;65.80;;;;;;5125157;28;19923;-72
2022/08/30 07:13:51;;;;;;;;;;;17.70;65.40;;;;;;5127251;27;19937;-72
2022/08/30 07:16:18;;;;;;;;;;;17.90;65.10;;;;;;5123825;27;19919;-72
2022/08/30 07:18:49;;;;;;;;;;;18.10;64.60;;;;;;5129319;27;19919;-72
2022/08/30 07:21:18;;;;;;;;;;;18.10;64.50;;;;;;5122144;27;19959;-72
2022/08/30 07:23:47;;;;;;;;;;;18.20;64.40;;;;;;5125561;27;19919;-71
2022/08/30 07:26:17;;;;;;;;;;;18.30;64.00;;;;;;5131251;27;19926;-71
2022/08/30 07:28:45;;;;;;;;;;;18.40;63.80;;;;;;5132837;27;20296;-70
2022/08/30 07:31:12;;;;;;;;;;;18.40;63.60;;;;;;5128038;27;19926;-69
2022/08/30 07:33:39;;;;;;;;;;;18.50;63.30;;;;;;5131016;27;20364;-72
2022/08/30 07:36:06;;;;;;;;;;;18.60;62.70;;;;;;5130857;27;19923;-72
2022/08/30 07:38:33;;;;;;;;;;;18.90;62.10;;;;;;5132427;27;19919;-71
2022/08/30 07:41:00;;;;;;;;;;;19.00;61.70;;;;;;5125995;27;19946;-70
2022/08/30 07:43:28;;;;;;;;;;;19.10;61.20;;;;;;5135825;27;20143;-73
2022/08/30 07:45:56;;;;;;;;;;;19.20;61.20;;;;;;5126757;27;19919;-71
2022/08/30 07:48:23;;;;;;;;;;;19.40;60.70;;;;;;5130368;27;19923;-71
2022/08/30 07:50:50;;;;;;;;;;;19.50;60.40;;;;;;5124269;27;19927;-71
2022/08/30 07:53:17;;;;;;;;;;;19.60;59.70;;;;;;5131338;27;19942;-71
2022/08/30 07:55:44;;;;;;;;;;;19.70;59.30;;;;;;5128666;27;19942;-71
2022/08/30 07:58:11;;;;;;;;;;;19.60;59.30;;;;;;5134726;27;20509;-71
2022/08/30 08:00:39;;;;;;;;;;;19.50;59.40;;;;;;5129271;27;19923;-63
2022/08/30 08:03:07;;;;;;;;;;;19.60;59.60;;;;;;5129062;27;20376;-64
2022/08/30 08:05:36;;;;;;;;;;;19.80;59.20;;;;;;5127876;27;20003;-64
2022/08/30 08:08:03;;;;;;;;;;;19.80;59.20;;;;;;5126640;27;19919;-64
2022/08/30 08:10:30;;;;;;;;;;;20.00;58.70;;;;;;5125590;27;20495;-63
2022/08/30 08:12:56;;;;;;;;;;;20.10;58.20;;;;;;5131985;27;19919;-65
2022/08/30 08:15:25;;;;;;;;;;;20.40;57.50;;;;;;5124014;27;19927;-63
2022/08/30 08:17:53;;;;;;;;;;;20.60;57.30;;;;;;5127799;27;19919;-63
2022/08/30 08:20:20;;;;;;;;;;;20.60;57.20;;;;;;5123169;27;19951;-64
2022/08/30 08:22:47;;;;;;;;;;;20.80;56.70;;;;;;5127514;27;19928;-65
2022/08/30 08:25:14;;;;;;;;;;;20.90;55.90;;;;;;5130408;27;20006;-65
2022/08/30 08:27:41;;;;;;;;;;;21.10;55.50;;;;;;5126904;27;19920;-65
2022/08/30 08:30:09;;;;;;;;;;;21.20;55.00;;;;;;5129699;27;20510;-65
2022/08/30 08:32:35;;;;;;;;;;;21.30;54.80;;;;;;5128239;27;19972;-65
2022/08/30 08:35:04;;;;;;;;;;;21.50;54.70;;;;;;5116525;27;19919;-65
2022/08/30 08:37:30;;;;;;;;;;;21.60;54.70;;;;;;5124631;27;19919;-65
2022/08/30 08:39:57;;;;;;;;;;;21.70;54.10;;;;;;5130276;27;19919;-65
2022/08/30 08:42:26;;;;;;;;;;;21.80;54.00;;;;;;5118958;27;19927;-64
2022/08/30 08:44:56;;;;;;;;;;;21.80;53.60;;;;;;5126302;27;19924;-65
2022/08/30 08:47:25;;;;;;;;;;;22.10;52.30;;;;;;5125593;27;20387;-66
2022/08/30 08:49:54;;;;;;;;;;;22.10;52.00;;;;;;5121733;27;19942;-66
2022/08/30 08:55:13;;;;;;;;;;;22.40;50.60;;;;;;5125366;27;19923;-65
2022/08/30 08:57:40;;;;;;;;;;;22.40;50.40;;;;;;5126073;27;20034;-65
2022/08/30 09:00:08;;;;;;;;;;;22.50;50.30;;;;;;5120262;27;19919;-65
2022/08/30 09:02:39;;;;;;;;;;;22.60;49.90;;;;;;5130619;27;19931;-65
2022/08/30 09:05:06;;;;;;;;;;;22.80;50.30;;;;;;5123079;27;19919;-65
2022/08/30 09:07:37;;;;;;;;;;;22.90;49.50;;;;;;5127539;27;19920;-65
2022/08/30 09:10:05;;;;;;;;;;;23.00;49.50;;;;;;5122925;27;19926;-64
2022/08/30 09:12:32;;;;;;;;;;;23.00;48.90;;;;;;5126622;27;19919;-64
2022/08/30 09:15:07;;;;;;;;;;;23.10;48.90;;;;;;5126178;27;20277;-65
2022/08/30 09:17:48;;;;;;;;;;;23.30;48.80;;;;;;5132233;27;20376;-65
2022/08/30 09:20:23;;;;;;;;;;;23.40;48.50;;;;;;5130361;27;19920;-64
2022/08/30 09:22:51;;;;;;;;;;;23.60;47.70;;;;;;5129562;27;20487;-66
2022/08/30 09:25:22;;;;;;;;;;;23.70;47.60;;;;;;5130960;27;19919;-65
2022/08/30 09:27:49;;;;;;;;;;;23.90;46.80;;;;;;5133662;27;20035;-64
2022/08/30 09:30:17;;;;;;;;;;;24.10;45.80;;;;;;5126106;27;19923;-64
2022/08/30 09:32:50;;;;;;;;;;;24.10;45.30;;;;;;5122975;27;19923;-64
2022/08/30 09:35:18;;;;;;;;;;;24.10;45.20;;;;;;5129357;27;19919;-64
2022/08/30 09:37:48;;;;;;;;;;;24.10;44.10;;;;;;5125111;27;19923;-65
2022/08/30 09:40:21;;;;;;;;;;;24.20;44.20;;;;;;5127858;27;20367;-65
2022/08/30 09:42:58;;;;;;;;;;;24.40;44.10;;;;;;5123422;27;20376;-69
2022/08/30 09:45:29;;;;;;;;;;;24.60;43.60;;;;;;5127140;27;19927;-65
2022/08/30 09:47:55;;;;;;;;;;;24.60;43.40;;;;;;5126029;27;20158;-65
2022/08/30 09:50:22;;;;;;;;;;;24.80;43.80;;;;;;5130436;27;20380;-65
2022/08/30 09:52:57;;;;;;;;;;;24.90;43.30;;;;;;5120193;27;20368;-65
2022/08/30 09:55:36;;;;;;;;;;;25.00;43.10;;;;;;5131514;27;19927;-66
2022/08/30 09:58:06;;;;;;;;;;;25.10;43.10;;;;;;5128930;27;19926;-66
2022/08/30 10:00:37;;;;;;;;;;;25.30;42.60;;;;;;5120414;27;19941;-65
2022/08/30 10:03:13;;;;;;;;;;;25.30;43.10;;;;;;5118822;27;19983;-66
2022/08/30 10:05:46;;;;;;;;;;;25.40;42.90;;;;;;5123831;27;19919;-64
2022/08/30 10:08:16;;;;;;;;;;;25.50;43.00;;;;;;5127750;27;19920;-66
2022/08/30 10:10:49;;;;;;;;;;;25.60;43.20;;;;;;5121726;27;19919;-64
2022/08/30 10:13:29;;;;;;;;;;;25.60;43.00;;;;;;5126688;27;19948;-65
2022/08/30 10:15:58;;;;;;;;;;;25.70;42.70;;;;;;5128172;27;20010;-66
2022/08/30 10:18:30;;;;;;;;;;;25.80;42.90;;;;;;5126105;27;19943;-65
2022/08/30 10:21:04;;;;;;;;;;;25.90;42.70;;;;;;5120143;27;19923;-65
2022/08/30 10:23:32;;;;;;;;;;;26.00;42.00;;;;;;5122266;27;19923;-66
2022/08/30 10:26:14;;;;;;;;;;;26.10;41.80;;;;;;5126785;27;19934;-67
2022/08/30 10:28:43;;;;;;;;;;;26.20;41.70;;;;;;5126953;27;19938;-66
2022/08/30 10:31:12;;;;;;;;;;;26.20;41.70;;;;;;5124274;27;19919;-66
2022/08/30 10:33:41;;;;;;;;;;;26.30;41.30;;;;;;5127664;27;19919;-67
2022/08/30 10:36:10;;;;;;;;;;;26.40;41.10;;;;;;5127775;27;19965;-65
2022/08/30 10:38:38;;;;;;;;;;;26.40;41.30;;;;;;5118958;27;19953;-65
2022/08/30 10:41:21;;;;;;;;;;;26.60;40.80;;;;;;5126744;27;19979;-65
2022/08/30 10:43:53;;;;;;;;;;;26.80;40.60;;;;;;5129803;27;19919;-64
2022/08/30 10:46:24;;;;;;;;;;;26.80;40.50;;;;;;5122793;27;19934;-65
2022/08/30 10:48:52;;;;;;;;;;;26.90;40.20;;;;;;5130062;27;19927;-65
2022/08/30 10:51:22;;;;;;;;;;;26.90;39.60;;;;;;5122467;27;19919;-65
2022/08/30 10:53:52;;;;;;;;;;;27.00;39.30;;;;;;5121133;27;19926;-65
2022/08/30 10:56:20;;;;;;;;;;;27.00;39.40;;;;;;5119407;28;19949;-68
2022/08/30 10:58:47;;;;;;;;;;;26.90;40.20;;;;;;5127951;27;19998;-65
2022/08/30 11:01:29;;;;;;;;;;;26.90;40.30;;;;;;5120106;28;19920;-67
2022/08/30 11:04:05;;;;;;;;;;;26.90;40.20;;;;;;5125978;27;19964;-66
2022/08/30 11:06:36;;;;;;;;;;;27.10;40.00;;;;;;5128045;27;19923;-64
2022/08/30 11:09:08;;;;;;;;;;;27.10;39.70;;;;;;5122104;27;19925;-66
2022/08/30 11:11:41;;;;;;;;;;;27.20;39.70;;;;;;5126953;27;19931;-66
2022/08/30 11:14:09;;;;;;;;;;;27.30;39.30;;;;;;5128439;27;20181;-67
2022/08/30 11:16:37;;;;;;;;;;;27.30;39.20;;;;;;5121939;27;19923;-67
2022/08/30 11:19:13;;;;;;;;;;;27.40;39.00;;;;;;5125284;27;19919;-66
2022/08/30 11:21:40;;;;;;;;;;;27.50;38.40;;;;;;5125154;27;19941;-67
2022/08/30 11:24:08;;;;;;;;;;;27.50;37.90;;;;;;5129398;27;19924;-65
2022/08/30 11:26:51;;;;;;;;;;;27.80;38.00;;;;;;5123788;27;19930;-66
2022/08/30 11:29:29;;;;;;;;;;;27.80;37.90;;;;;;5118716;27;20434;-66
2022/08/30 11:31:56;;;;;;;;;;;28.00;38.20;;;;;;5122997;27;19923;-66
2022/08/30 11:34:38;;;;;;;;;;;28.10;38.20;;;;;;5120330;27;19926;-65
2022/08/30 11:37:07;;;;;;;;;;;28.10;37.80;;;;;;5125499;27;20033;-66
2022/08/30 11:39:40;;;;;;;;;;;28.00;37.80;;;;;;5123121;27;19931;-64
2022/08/30 11:42:10;;;;;;;;;;;27.90;38.40;;;;;;5126683;27;20035;-67
2022/08/30 11:44:37;;;;;;;;;;;28.00;38.30;;;;;;5127428;27;19927;-66
2022/08/30 11:47:27;;;;;;;;;;;27.90;38.20;;;;;;5130063;27;19938;-65
2022/08/30 11:50:01;;;;;;;;;;;27.90;37.70;;;;;;5127107;27;19927;-65
2022/08/30 11:52:39;;;;;;;;;;;27.90;37.60;;;;;;5123060;27;20874;-66
2022/08/30 11:55:39;;;;;;;;;;;27.90;37.50;;;;;;5126244;27;19919;-67
2022/08/30 11:58:13;;;;;;;;;;;27.80;37.50;;;;;;5110117;27;19919;-65
2022/08/30 12:00:41;;;;;;;;;;;27.90;37.40;;;;;;5119992;27;19919;-66
2022/08/30 12:03:27;;;;;;;;;;;27.80;37.30;;;;;;5124200;27;19919;-65
2022/08/30 12:05:56;;;;;;;;;;;27.70;37.10;;;;;;5121432;27;19919;-66
2022/08/30 12:08:44;;;;;;;;;;;27.60;37.60;;;;;;5132185;27;19919;-67
2022/08/30 12:11:25;;;;;;;;;;;27.60;37.80;;;;;;5126404;27;19926;-66
2022/08/30 12:13:53;;;;;;;;;;;27.60;37.90;;;;;;5106508;27;19927;-66
2022/08/30 12:16:22;;;;;;;;;;;27.70;38.00;;;;;;5124580;27;19923;-65
2022/08/30 12:18:49;;;;;;;;;;;27.60;38.00;;;;;;5128171;27;19927;-66
2022/08/30 12:21:27;;;;;;;;;;;27.60;38.00;;;;;;5118046;27;19931;-66
2022/08/30 12:23:58;;;;;;;;;;;27.60;38.60;;;;;;5116081;27;19934;-65
2022/08/30 12:26:32;;;;;;;;;;;27.60;37.90;;;;;;5130880;27;19958;-65
2022/08/30 12:29:10;;;;;;;;;;;27.60;37.60;;;;;;5127231;27;19947;-65
2022/08/30 12:31:40;;;;;;;;;;;27.60;37.80;;;;;;5131686;27;19919;-66
2022/08/30 12:34:07;;;;;;;;;;;27.50;38.20;;;;;;5124628;27;20364;-67
2022/08/30 12:36:35;;;;;;;;;;;27.60;37.80;;;;;;5127049;27;19920;-66
2022/08/30 12:39:08;;;;;;;;;;;27.50;38.10;;;;;;5124898;27;19923;-67
2022/08/30 12:41:35;;;;;;;;;;;27.40;39.10;;;;;;5125563;27;19958;-67
2022/08/30 12:44:01;;;;;;;;;;;27.40;38.80;;;;;;5129510;27;20149;-66
2022/08/30 12:46:29;;;;;;;;;;;27.60;38.00;;;;;;5126114;27;19920;-66
2022/08/30 12:48:56;;;;;;;;;;;27.70;37.40;;;;;;5122487;27;20074;-66
2022/08/30 12:51:34;;;;;;;;;;;27.90;37.70;;;;;;5128474;27;19926;-66
2022/08/30 12:54:16;;;;;;;;;;;27.90;38.70;;;;;;5125756;27;20295;-64
2022/08/30 12:56:52;;;;;;;;;;;27.70;38.20;;;;;;5120845;27;19920;-66
2022/08/30 12:59:36;;;;;;;;;;;27.80;37.90;;;;;;5118190;27;19934;-66
2022/08/30 13:02:06;;;;;;;;;;;27.90;37.30;;;;;;5125814;27;19919;-67
2022/08/30 13:04:33;;;;;;;;;;;28.00;37.40;;;;;;5129070;27;19927;-65
2022/08/30 13:07:00;;;;;;;;;;;28.00;37.10;;;;;;5127111;27;20140;-66
2022/08/30 13:09:30;;;;;;;;;;;27.80;38.60;;;;;;5123245;27;20018;-67
2022/08/30 13:11:57;;;;;;;;;;;27.50;39.20;;;;;;5132678;27;20018;-66
2022/08/30 13:14:30;;;;;;;;;;;27.30;39.70;;;;;;5123501;27;20359;-67
2022/08/30 13:17:04;;;;;;;;;;;27.20;39.60;;;;;;5121314;27;20006;-66
2022/08/30 13:19:33;;;;;;;;;;;27.30;37.60;;;;;;5121567;27;19969;-66
2022/08/30 13:22:00;;;;;;;;;;;27.40;37.20;;;;;;5113841;27;20017;-66
2022/08/30 13:24:29;;;;;;;;;;;27.50;37.30;;;;;;5121414;27;19971;-65
2022/08/30 13:27:02;;;;;;;;;;;27.50;37.90;;;;;;5121904;27;19926;-65
2022/08/30 13:29:29;;;;;;;;;;;27.50;37.50;;;;;;5124057;27;19963;-66
2022/08/30 13:31:56;;;;;;;;;;;27.50;38.10;;;;;;5125899;27;20280;-65
2022/08/30 13:34:23;;;;;;;;;;;27.50;37.80;;;;;;5116142;27;19920;-65
2022/08/30 13:36:51;;;;;;;;;;;27.60;37.20;;;;;;5126931;27;19929;-66
2022/08/30 13:39:17;;;;;;;;;;;27.50;37.30;;;;;;5127027;27;19919;-68
2022/08/30 13:41:46;;;;;;;;;;;27.40;38.10;;;;;;5128446;27;19919;-65
2022/08/30 13:44:12;;;;;;;;;;;27.40;37.60;;;;;;5122463;27;19978;-66
2022/08/30 13:46:41;;;;;;;;;;;27.40;38.20;;;;;;5121308;27;19933;-66
2022/08/30 13:49:10;;;;;;;;;;;27.30;38.50;;;;;;5124665;27;19945;-65
2022/08/30 13:51:36;;;;;;;;;;;27.40;37.90;;;;;;5127722;27;19923;-65
2022/08/30 13:54:03;;;;;;;;;;;27.50;37.90;;;;;;5125776;27;19962;-65
2022/08/30 13:56:31;;;;;;;;;;;27.50;38.80;;;;;;5132611;27;20353;-65
2022/08/30 13:58:59;;;;;;;;;;;27.50;37.70;;;;;;5132315;27;19923;-66
2022/08/30 14:01:26;;;;;;;;;;;27.60;37.20;;;;;;5123454;27;20588;-66
2022/08/30 14:03:53;;;;;;;;;;;27.60;36.60;;;;;;5123127;27;19923;-64
2022/08/30 14:06:20;;;;;;;;;;;27.60;36.60;;;;;;5128351;27;19919;-65
2022/08/30 14:08:47;;;;;;;;;;;27.60;36.70;;;;;;5128806;27;19919;-65
2022/08/30 14:11:16;;;;;;;;;;;27.60;36.50;;;;;;5131710;27;19927;-64
2022/08/30 14:13:43;;;;;;;;;;;27.50;38.00;;;;;;5126110;27;20018;-64
2022/08/30 14:16:11;;;;;;;;;;;27.20;38.70;;;;;;5131317;27;19919;-64
2022/08/30 14:18:38;;;;;;;;;;;27.10;38.90;;;;;;5129687;27;19919;-66
2022/08/30 14:21:05;;;;;;;;;;;27.10;38.70;;;;;;5126084;27;20018;-65
2022/08/30 14:23:32;;;;;;;;;;;27.10;38.00;;;;;;5119707;27;20365;-64
2022/08/30 14:25:59;;;;;;;;;;;27.10;38.10;;;;;;5124371;27;19919;-65
2022/08/30 14:28:28;;;;;;;;;;;27.10;37.80;;;;;;5130919;27;19919;-65